Aeroporto :







RITROVATECI SU...

 
LOGIN :

Iscrizione | Disclaimer

   EN    FR    IT 

 









Sommario :    VFR   VFR Marginale   IFR   IFR Intensivo   IFR Molto Intensivo
Visibilità : 
Base nubi : 
>= 8 km
>= 3000ft
5 / 8 km
1000 / 3000 ft
1500m / 5 km
500 / 1000 ft
800 / 1500m
200 / 500 ft
< 800m
< 200 ft
Simboli :   Temporali  Nebbia  Neve Forte  Precipitazioni Forti  Vento > 20 kt






- Altitudine del aeroporto : 988 ft


KFVE - Northern Aroostook Regional

ULTIMO METAR :
  • 142053Z AUTO 17008G16KT 10SM OVC060 M06/M13 A3024 RMK AO2 SLP258 T10611128 56017

METARs OBSOLETI :
  • 141953Z AUTO 17010G19KT 10SM FEW048 OVC070 M06/M13 A3025 RMK AO2 SLP261 T10611128
  • 141853Z AUTO 17009G17KT 10SM BKN043 OVC055 M06/M12 A3027 RMK AO2 SLP268 T10611117

TAF KFVE
Valido dal 14 a 18 ore il 15 a 18 ore UTC


141720Z 1418/1518 17010KT P6SM BKN050
FM141900 17010KT P6SM VCSH BKN040
FM150400 17006KT P6SM BKN035
FM151100 18007KT P6SM VCSH BKN021
FM151700 23014G22KT P6SM VCSH BKN019



MetMap, La meteo Aeronautica in un colpo d'occhio ! - Copyright ORBIFLY Dicembre 2007 - Disclaimer

ORBIFLY MET'MAP TEAM :

Programmazione e sviluppo : Alexandra Zaïnal
Concezione e sviluppo : Baudouin d'Aumeries
Co-Programmazione e sviluppo : Marc-Olivier Méhu
Supporto tecnico e logistico : Manuel Goepfert
Aiuto per la traduzione : Arnaldo La Scala

Contatto : metmap@orbifly.com




FONTI E CREDITI :

   NOAA